Terminal Aerodrome Forecast
Issued by NWS St Louis, MO

Home | Current Version | Previous Version | Graphics & Text | Print | Product List | Glossary On
Versions: 1 2 3 4 5 6 7 8 9 10 11 12 13 14 15 16 17 18 19 20 21 22 23 24 25 26 27 28 29 30 31 32 33
000
FTUS43 KLSX 251600 AAC
TAFSTL
TAF AMD
KSTL 251657Z 2517/2618 31011KT 4SM -RA BR OVC008
     FM252300 35015G25KT 2SM -SN BR OVC006
     FM260100 33012KT P6SM OVC012
     FM261000 32006KT P6SM SCT010=

USA.gov is the U.S. government's official web portal to all federal, state and local government web resources and services.